Time;durP1;ratioP1;P1;durP2;ratioP2;P2;SDS_P1;SDS_P2;PMS_P1;PMS_P2;Temp;Humidity;BMP_temperature;BMP_pressure;BME280_temperature;BME280_humidity;BME280_pressure;Samples;Min_cycle;Max_cycle;Signal;HPM_P1;HPM_P2
2023/03/04 00:01:49;;;;;;;22.23;8.07;;;;;;;2.90;74.85;101487.97;5006032;28;20111;-58
2023/03/04 00:04:15;;;;;;;41.78;10.10;;;;;;;2.97;74.59;101484.41;5013282;28;20040;-57
2023/03/04 00:06:41;;;;;;;15.98;7.10;;;;;;;3.02;74.36;101467.00;5012895;28;20418;-57
2023/03/04 00:09:06;;;;;;;21.52;9.23;;;;;;;3.03;74.28;101455.72;5015417;28;20060;-58
2023/03/04 00:11:31;;;;;;;19.98;8.18;;;;;;;3.06;74.24;101465.22;5016691;28;20046;-57
2023/03/04 00:13:57;;;;;;;28.65;8.57;;;;;;;3.05;74.21;101461.75;5001247;28;20052;-59
2023/03/04 00:16:27;;;;;;;22.33;8.57;;;;;;;3.06;74.19;101462.59;5011220;28;20377;-57
2023/03/04 00:18:56;;;;;;;24.45;8.57;;;;;;;3.07;74.34;101459.13;5005855;28;20054;-60
2023/03/04 00:21:22;;;;;;;20.33;6.95;;;;;;;3.05;74.17;101458.28;5019539;28;20030;-57
2023/03/04 00:23:48;;;;;;;25.58;8.15;;;;;;;3.05;74.27;101456.56;5010861;28;20068;-55
2023/03/04 00:26:14;;;;;;;26.42;8.90;;;;;;;3.07;73.83;101458.28;5009222;28;20110;-59
2023/03/04 00:28:40;;;;;;;26.45;9.23;;;;;;;3.09;74.16;101459.13;5004194;28;20086;-56
2023/03/04 00:31:06;;;;;;;26.98;8.77;;;;;;;3.10;74.15;101464.28;5018095;28;20045;-56
2023/03/04 00:33:32;;;;;;;22.33;8.20;;;;;;;3.11;73.87;101491.13;5016016;28;20030;-58
2023/03/04 00:35:59;;;;;;;21.33;7.13;;;;;;;3.11;73.87;101471.22;5016559;28;20146;-58
2023/03/04 00:38:24;;;;;;;24.73;8.27;;;;;;;3.10;73.97;101455.66;5011627;28;20716;-57
2023/03/04 00:40:50;;;;;;;23.23;8.07;;;;;;;3.10;73.99;101469.50;5006041;28;20071;-57
2023/03/04 00:43:15;;;;;;;29.88;7.97;;;;;;;3.11;73.96;101453.00;5012960;28;20067;-57
2023/03/04 00:45:41;;;;;;;24.38;8.98;;;;;;;3.14;73.83;101454.69;4992827;28;20923;-57
2023/03/04 00:48:07;;;;;;;29.73;7.90;;;;;;;3.13;73.67;101451.25;5010045;28;20420;-59
2023/03/04 00:50:32;;;;;;;24.27;7.97;;;;;;;3.16;73.86;101463.34;5003182;28;20033;-56
2023/03/04 00:52:58;;;;;;;24.23;7.90;;;;;;;3.13;73.63;101463.38;5013585;28;20190;-61
2023/03/04 00:55:23;;;;;;;19.55;8.30;;;;;;;3.14;73.86;101452.97;5012984;28;20071;-59
2023/03/04 00:57:49;;;;;;;21.75;7.00;;;;;;;3.15;74.10;101457.28;5010759;28;20082;-57
2023/03/04 01:00:15;;;;;;;26.58;7.10;;;;;;;3.16;73.93;101472.00;5010794;28;20072;-61
2023/03/04 01:02:40;;;;;;;24.70;7.72;;;;;;;3.14;73.86;101459.91;5014777;28;20078;-57
2023/03/04 01:05:07;;;;;;;18.92;6.85;;;;;;;3.15;73.96;101448.63;5009257;28;20041;-55
2023/03/04 01:07:32;;;;;;;20.75;9.05;;;;;;;3.16;73.90;101453.81;5001122;28;21696;-56
2023/03/04 01:09:58;;;;;;;25.90;7.38;;;;;;;3.16;73.90;101459.00;5009526;28;20081;-58
2023/03/04 01:12:23;;;;;;;25.35;7.70;;;;;;;3.17;73.87;101439.03;5017152;28;20065;-58
2023/03/04 01:14:49;;;;;;;18.75;6.35;;;;;;;3.18;73.87;101438.16;5009159;28;20037;-59
2023/03/04 01:17:14;;;;;;;23.63;7.20;;;;;;;3.21;73.91;101435.53;5014514;28;20036;-59
2023/03/04 01:19:39;;;;;;;24.77;5.88;;;;;;;3.20;73.84;101439.00;5016515;28;20038;-59
2023/03/04 01:22:05;;;;;;;17.83;6.45;;;;;;;3.18;73.87;101431.22;5015595;28;20066;-58
2023/03/04 01:24:30;;;;;;;19.95;7.07;;;;;;;3.19;74.04;101427.72;5010524;28;20032;-56
2023/03/04 01:26:56;;;;;;;30.33;7.03;;;;;;;3.22;73.83;101420.75;5012005;28;20720;-60
2023/03/04 01:29:21;;;;;;;15.68;6.18;;;;;;;3.22;73.84;101420.75;5015811;28;20029;-60
2023/03/04 01:31:47;;;;;;;21.13;6.18;;;;;;;3.23;73.80;101412.94;5026174;28;20105;-58
2023/03/04 01:34:13;;;;;;;16.52;6.03;;;;;;;3.23;73.83;101412.94;5014852;28;20041;-58
2023/03/04 01:36:38;;;;;;;19.80;6.20;;;;;;;3.24;73.81;101406.88;5021820;28;20043;-57
2023/03/04 01:39:04;;;;;;;19.95;6.55;;;;;;;3.25;74.00;101403.38;5015946;28;20028;-58
2023/03/04 01:41:30;;;;;;;17.00;5.68;;;;;;;3.25;73.90;101398.19;5023198;28;22456;-56
2023/03/04 01:43:59;;;;;;;20.20;5.85;;;;;;;3.26;73.86;101392.06;5022164;28;20069;-57
2023/03/04 01:46:25;;;;;;;19.65;7.57;;;;;;;3.26;74.03;101376.47;5028726;28;20040;-55
2023/03/04 01:48:51;;;;;;;28.35;6.43;;;;;;;3.27;74.05;101383.38;5017338;28;20044;-57
2023/03/04 01:51:18;;;;;;;19.95;5.57;;;;;;;3.29;73.92;101379.00;5018427;28;20097;-57
2023/03/04 01:53:46;;;;;;;18.65;4.65;;;;;;;3.30;74.12;101380.75;5016178;28;20058;-55
2023/03/04 01:56:19;;;;;;;17.85;5.60;;;;;;;3.31;73.92;101373.81;5007340;28;20056;-57
2023/03/04 01:59:04;;;;;;;24.90;6.22;;;;;;;3.34;73.90;101385.00;5021941;28;20615;-59
2023/03/04 02:01:30;;;;;;;12.90;4.65;;;;;;;3.34;74.08;101356.41;5013639;28;20535;-55
2023/03/04 02:03:55;;;;;;;18.55;4.55;;;;;;;3.33;74.19;101346.88;5014397;28;20046;-55
2023/03/04 02:06:21;;;;;;;17.35;4.60;;;;;;;3.34;74.15;101347.72;5021189;28;20041;-56
2023/03/04 02:08:46;;;;;;;24.15;5.05;;;;;;;3.33;74.22;101341.66;5011657;28;20044;-57
2023/03/04 02:11:11;;;;;;;22.40;5.72;;;;;;;3.37;74.15;101341.63;5017723;28;20026;-58
2023/03/04 02:13:37;;;;;;;13.95;3.90;;;;;;;3.38;74.33;101345.94;5062897;22;20051;-53
2023/03/04 02:16:02;;;;;;;17.73;4.93;;;;;;;3.41;74.17;101335.44;5094391;28;20047;-56
2023/03/04 02:18:28;;;;;;;16.35;4.53;;;;;;;3.43;74.30;101346.69;5082436;28;20515;-57
2023/03/04 02:21:12;;;;;;;13.90;4.70;;;;;;;3.45;74.28;101331.91;5079901;28;20034;-54
2023/03/04 02:24:16;;;;;;;17.60;4.43;;;;;;;3.46;74.34;101338.84;5075053;28;20051;-56
2023/03/04 02:26:43;;;;;;;11.90;4.30;;;;;;;3.49;74.33;101337.03;5061650;28;20508;-56
2023/03/04 02:29:14;;;;;;;16.83;3.88;;;;;;;3.49;74.16;101324.03;5067243;28;20036;-55
2023/03/04 02:31:43;;;;;;;20.77;4.82;;;;;;;3.53;74.28;101330.03;5061029;28;20031;-53
2023/03/04 02:34:18;;;;;;;16.80;5.07;;;;;;;3.54;74.03;101328.28;5069178;28;20032;-54
2023/03/04 02:36:45;;;;;;;25.40;4.50;;;;;;;3.57;74.21;101320.44;5066033;28;20390;-54
2023/03/04 02:39:20;;;;;;;21.30;3.97;;;;;;;3.58;74.42;101315.19;5066267;28;20038;-54
2023/03/04 02:41:51;;;;;;;20.23;5.35;;;;;;;3.60;74.22;101315.16;5069808;28;20104;-55
2023/03/04 02:44:31;;;;;;;16.25;3.17;;;;;;;3.63;74.28;101312.50;5062106;28;20039;-58
2023/03/04 02:46:57;;;;;;;11.55;3.25;;;;;;;3.66;73.98;101302.91;5064539;28;20056;-56
2023/03/04 02:49:25;;;;;;;15.77;3.85;;;;;;;3.68;74.24;101309.81;5069972;28;20046;-60
2023/03/04 02:51:52;;;;;;;15.95;3.60;;;;;;;3.71;74.10;101294.13;5071901;28;20237;-55
2023/03/04 02:54:21;;;;;;;17.35;3.20;;;;;;;3.70;74.24;101292.44;5063411;28;20061;-52
2023/03/04 02:56:49;;;;;;;11.65;3.60;;;;;;;3.71;74.01;101296.72;5059318;28;20035;-58
2023/03/04 02:59:15;;;;;;;14.90;3.65;;;;;;;3.72;74.10;101288.03;5065011;28;20040;-55
2023/03/04 03:01:41;;;;;;;15.52;3.25;;;;;;;3.75;74.13;101290.56;5066639;28;20400;-60
2023/03/04 03:04:07;;;;;;;14.63;3.70;;;;;;;3.79;74.11;101289.63;5067504;28;20074;-57
2023/03/04 03:06:32;;;;;;;12.75;3.25;;;;;;;3.79;74.41;101280.06;5066418;28;20060;-58
2023/03/04 03:08:58;;;;;;;18.58;3.53;;;;;;;3.80;74.20;101284.38;5061600;28;20504;-58
2023/03/04 03:11:23;;;;;;;18.23;3.78;;;;;;;3.83;74.15;101287.81;5060094;28;20052;-54
2023/03/04 03:13:49;;;;;;;19.17;3.83;;;;;;;3.85;74.30;101275.63;5064663;28;20095;-57
2023/03/04 03:16:14;;;;;;;22.27;3.55;;;;;;;3.87;74.40;101272.09;5067649;28;20031;-54
2023/03/04 03:18:40;;;;;;;13.82;2.45;;;;;;;3.90;74.13;101261.59;5064417;28;20523;-54
2023/03/04 03:21:06;;;;;;;12.80;2.92;;;;;;;3.92;74.22;101248.56;5067984;28;21406;-58
2023/03/04 03:23:32;;;;;;;19.45;3.55;;;;;;;3.93;74.16;101253.75;5064981;28;20024;-58
2023/03/04 03:25:58;;;;;;;18.02;3.78;;;;;;;3.94;74.18;101263.25;5064085;28;20042;-60
2023/03/04 03:28:23;;;;;;;21.40;3.80;;;;;;;3.96;74.21;101258.88;5064539;28;20067;-56
2023/03/04 03:30:49;;;;;;;9.27;2.67;;;;;;;3.97;74.53;101252.78;5064569;28;20486;-56
2023/03/04 03:33:14;;;;;;;14.50;3.55;;;;;;;4.01;74.28;101255.34;5058540;28;20030;-56
2023/03/04 03:35:40;;;;;;;13.13;3.53;;;;;;;4.00;74.45;101254.47;5069231;28;20032;-58
2023/03/04 03:38:05;;;;;;;13.05;2.67;;;;;;;4.02;74.35;101255.28;5062574;28;20032;-53
2023/03/04 03:40:31;;;;;;;19.33;3.30;;;;;;;4.05;74.23;101256.94;5068181;28;20036;-56
2023/03/04 03:42:56;;;;;;;11.55;2.45;;;;;;;4.07;74.32;101261.25;5072334;28;20024;-57
2023/03/04 03:45:22;;;;;;;12.82;2.50;;;;;;;4.10;74.09;101268.13;5064805;28;20036;-53
2023/03/04 03:47:47;;;;;;;13.45;2.88;;;;;;;4.10;74.17;101261.16;5068721;28;20030;-53
2023/03/04 03:50:13;;;;;;;17.95;2.70;;;;;;;4.13;74.17;101262.88;5066264;28;20039;-58
2023/03/04 03:52:38;;;;;;;23.38;5.07;;;;;;;4.16;74.18;101254.97;5070582;28;20032;-55
2023/03/04 03:55:04;;;;;;;15.35;2.47;;;;;;;4.19;74.29;101257.50;5058502;28;20042;-53
2023/03/04 03:57:29;;;;;;;9.80;3.08;;;;;;;4.21;74.09;101250.50;5069055;28;20028;-55
2023/03/04 03:59:55;;;;;;;18.73;2.85;;;;;;;4.24;74.03;101253.06;5068870;28;20118;-55
2023/03/04 04:02:21;;;;;;;13.32;2.80;;;;;;;4.26;74.23;101250.41;5064627;28;20028;-59
2023/03/04 04:04:48;;;;;;;10.38;2.75;;;;;;;4.27;74.01;101242.56;5068625;28;20054;-56
2023/03/04 04:07:13;;;;;;;12.40;2.47;;;;;;;4.29;74.33;101242.53;5067233;28;20549;-58
2023/03/04 04:09:38;;;;;;;13.43;2.25;;;;;;;4.28;74.11;101246.00;5071841;28;20032;-59
2023/03/04 04:12:05;;;;;;;10.05;3.08;;;;;;;4.30;73.86;101248.59;5069434;28;20484;-54
2023/03/04 04:14:32;;;;;;;18.13;3.28;;;;;;;4.30;74.03;101246.00;5063466;28;20028;-56
2023/03/04 04:16:58;;;;;;;11.65;2.05;;;;;;;4.32;74.05;101244.19;5074844;28;20038;-56
2023/03/04 04:19:24;;;;;;;13.70;2.40;;;;;;;4.33;73.89;101246.78;5070006;28;20069;-56
2023/03/04 04:21:49;;;;;;;11.07;1.83;;;;;;;4.34;74.16;101234.59;5059679;28;20417;-57
2023/03/04 04:24:15;;;;;;;11.25;2.25;;;;;;;4.34;73.93;101238.06;5069894;28;20036;-54
2023/03/04 04:26:41;;;;;;;15.00;2.25;;;;;;;4.34;73.79;101232.84;5077093;28;20028;-58
2023/03/04 04:29:07;;;;;;;9.25;1.95;;;;;;;4.36;74.15;101238.00;5067981;28;20050;-59
2023/03/04 04:31:33;;;;;;;15.73;2.50;;;;;;;4.38;74.22;101244.06;5068059;28;20494;-59
2023/03/04 04:33:59;;;;;;;9.25;2.45;;;;;;;4.39;74.23;101238.78;5065483;28;20057;-57
2023/03/04 04:36:25;;;;;;;9.48;1.80;;;;;;;4.39;74.28;101236.19;5066381;28;20034;-56
2023/03/04 04:38:51;;;;;;;11.35;3.20;;;;;;;4.42;74.27;101224.84;5071350;28;20056;-59
2023/03/04 04:41:20;;;;;;;13.60;2.17;;;;;;;4.43;74.25;101231.78;5056847;28;20127;-57
2023/03/04 04:43:46;;;;;;;16.23;3.03;;;;;;;4.44;73.93;101238.72;5067121;28;20031;-57
2023/03/04 04:46:12;;;;;;;14.48;2.00;;;;;;;4.44;74.17;101228.28;5068009;28;20573;-56
2023/03/04 04:48:38;;;;;;;5.68;1.95;;;;;;;4.45;73.99;101219.56;5065342;28;20517;-55
2023/03/04 04:51:03;;;;;;;11.77;2.17;;;;;;;4.46;74.18;101229.09;5068799;28;20029;-54
2023/03/04 04:53:29;;;;;;;7.18;2.42;;;;;;;4.47;74.18;101228.19;5069640;28;21071;-57
2023/03/04 04:55:54;;;;;;;12.55;2.85;;;;;;;4.49;74.00;101215.97;5064219;28;20040;-53
2023/03/04 04:58:20;;;;;;;8.23;1.80;;;;;;;4.50;74.14;101227.28;5070998;28;20039;-57
2023/03/04 05:00:45;;;;;;;9.30;3.03;;;;;;;4.51;74.01;101208.97;5062962;28;20036;-60
2023/03/04 05:03:11;;;;;;;15.75;3.80;;;;;;;4.52;73.73;101208.09;5065003;28;20043;-53
2023/03/04 05:05:36;;;;;;;12.20;2.13;;;;;;;4.52;74.14;101221.13;5069891;28;20039;-60
2023/03/04 05:08:02;;;;;;;9.32;2.38;;;;;;;4.52;74.09;101218.50;5071581;28;20102;-60
2023/03/04 05:10:27;;;;;;;17.73;2.42;;;;;;;4.54;73.83;101218.47;5075772;28;20521;-59
2023/03/04 05:12:52;;;;;;;6.82;2.00;;;;;;;4.55;73.74;101210.63;5073320;28;20058;-53
2023/03/04 05:15:18;;;;;;;17.00;3.03;;;;;;;4.57;73.91;101214.06;5060860;28;20067;-53
2023/03/04 05:17:43;;;;;;;12.95;2.03;;;;;;;4.60;73.88;101212.25;5074993;28;20025;-58
2023/03/04 05:20:09;;;;;;;9.02;3.08;;;;;;;4.59;73.87;101211.41;5070821;28;20494;-56
2023/03/04 05:22:35;;;;;;;11.35;3.47;;;;;;;4.58;73.99;101218.38;5064506;28;20114;-54
2023/03/04 05:25:02;;;;;;;8.40;1.77;;;;;;;4.61;73.85;101208.75;5069716;28;20042;-55
2023/03/04 05:27:27;;;;;;;11.45;2.65;;;;;;;4.62;73.70;101216.53;5074418;28;20074;-59
2023/03/04 05:29:54;;;;;;;15.32;2.38;;;;;;;4.63;73.69;101222.59;5067408;28;20028;-57
2023/03/04 05:32:20;;;;;;;5.35;1.10;;;;;;;4.61;74.03;101209.59;5068678;28;20985;-56
2023/03/04 05:34:45;;;;;;;9.63;2.30;;;;;;;4.62;73.87;101216.53;5065541;28;21860;-59
2023/03/04 05:37:11;;;;;;;15.68;2.88;;;;;;;4.63;73.98;101212.16;5067304;28;20032;-58
2023/03/04 05:39:36;;;;;;;8.98;1.50;;;;;;;4.61;74.21;101219.19;5063772;28;20031;-58
2023/03/04 05:42:02;;;;;;;12.45;2.40;;;;;;;4.58;74.35;101213.16;5069647;28;20517;-53
2023/03/04 05:44:27;;;;;;;6.90;1.58;;;;;;;4.60;74.41;101217.47;5062011;28;20043;-55
2023/03/04 05:46:53;;;;;;;12.60;1.92;;;;;;;4.60;74.41;101218.31;5059383;28;20101;-54
2023/03/04 05:49:19;;;;;;;6.55;1.75;;;;;;;4.60;74.28;101213.09;5069370;28;20414;-54
2023/03/04 05:51:44;;;;;;;6.85;2.58;;;;;;;4.61;74.35;101213.97;5064795;28;24157;-57
2023/03/04 05:54:09;;;;;;;15.82;1.90;;;;;;;4.62;74.75;101216.53;5074419;28;20067;-58
2023/03/04 05:56:35;;;;;;;12.00;2.35;;;;;;;4.62;74.98;101226.97;5064456;28;20038;-57
2023/03/04 05:59:00;;;;;;;10.50;1.58;;;;;;;4.63;75.02;101222.59;5074956;28;20028;-56
2023/03/04 06:01:26;;;;;;;8.15;1.80;;;;;;;4.63;74.72;101233.00;5065266;28;20036;-55
2023/03/04 06:03:52;;;;;;;8.63;2.30;;;;;;;4.64;75.00;101224.31;5063828;28;20526;-59
2023/03/04 06:06:17;;;;;;;15.52;2.15;;;;;;;4.64;74.80;101229.50;5068087;28;20974;-57
2023/03/04 06:08:43;;;;;;;7.90;2.42;;;;;;;4.62;74.97;101224.34;5064476;28;20044;-58
2023/03/04 06:11:08;;;;;;;8.50;1.52;;;;;;;4.58;75.14;101228.78;5066248;28;20124;-60
2023/03/04 06:13:34;;;;;;;10.80;1.52;;;;;;;4.55;75.42;101220.19;5066031;28;20495;-58
2023/03/04 06:16:00;;;;;;;15.77;1.90;;;;;;;4.53;75.69;101220.22;5064709;28;20027;-56
2023/03/04 06:18:26;;;;;;;7.05;1.67;;;;;;;4.52;75.72;101217.66;5063275;28;20043;-58
2023/03/04 06:21:00;;;;;;;5.78;1.73;;;;;;;4.51;75.90;101224.63;5066359;28;20113;-57
2023/03/04 06:23:26;;;;;;;8.23;2.30;;;;;;;4.53;75.90;101212.41;5067027;28;20105;-60
2023/03/04 06:25:53;;;;;;;12.82;1.92;;;;;;;4.54;76.16;101219.34;5065494;28;20049;-56
2023/03/04 06:28:19;;;;;;;6.20;1.45;;;;;;;4.55;76.14;101215.84;5068944;28;20477;-52
2023/03/04 06:30:44;;;;;;;13.88;2.00;;;;;;;4.57;76.03;101214.06;5086679;28;20097;-56
2023/03/04 06:33:10;;;;;;;11.35;2.00;;;;;;;4.59;76.09;101216.59;5063272;28;20021;-59
2023/03/04 06:35:35;;;;;;;9.18;2.75;;;;;;;4.60;76.17;101222.69;5065952;28;20036;-53
2023/03/04 06:38:00;;;;;;;9.32;2.10;;;;;;;4.60;76.47;101230.50;5068671;28;20020;-58
2023/03/04 06:40:26;;;;;;;6.10;1.40;;;;;;;4.60;76.47;101233.13;5062734;28;20118;-54
2023/03/04 06:42:51;;;;;;;7.55;1.80;;;;;;;4.59;76.49;101221.81;5068304;28;20024;-57
2023/03/04 06:45:17;;;;;;;7.22;2.10;;;;;;;4.60;76.65;101218.31;5068224;28;20032;-57
2023/03/04 06:47:43;;;;;;;6.78;2.10;;;;;;;4.61;76.47;101235.69;5065349;28;20136;-57
2023/03/04 06:50:11;;;;;;;9.55;1.90;;;;;;;4.62;76.74;101223.47;5068365;28;20044;-62
2023/03/04 06:52:37;;;;;;;8.18;1.60;;;;;;;4.65;76.68;101232.09;5066801;28;20113;-54
2023/03/04 06:55:03;;;;;;;4.38;1.65;;;;;;;4.66;76.20;101227.72;5064266;28;20032;-53
2023/03/04 06:57:29;;;;;;;11.63;2.30;;;;;;;4.67;76.81;101232.06;5062890;28;20114;-54
2023/03/04 06:59:54;;;;;;;12.98;2.05;;;;;;;4.69;76.56;101238.09;5065420;28;20576;-53
2023/03/04 07:02:20;;;;;;;2.95;1.20;;;;;;;4.71;76.74;101236.31;5067493;28;20046;-56
2023/03/04 07:04:45;;;;;;;10.07;1.20;;;;;;;4.71;77.01;101246.72;5065156;28;20036;-58
2023/03/04 07:07:11;;;;;;;7.50;1.58;;;;;;;4.70;76.85;101239.81;5065228;28;20038;-57
2023/03/04 07:09:36;;;;;;;7.32;2.78;;;;;;;4.69;76.96;101244.16;5062930;28;20448;-58
2023/03/04 07:12:03;;;;;;;7.63;1.30;;;;;;;4.68;76.80;101246.81;5067264;28;20036;-55
2023/03/04 07:14:28;;;;;;;8.85;2.38;;;;;;;4.68;77.00;101241.59;5065006;28;20028;-59
2023/03/04 07:16:54;;;;;;;8.02;1.30;;;;;;;4.68;76.75;101245.06;5066371;28;20704;-59
2023/03/04 07:19:20;;;;;;;6.60;1.40;;;;;;;4.71;76.92;101241.53;5068173;28;20090;-57
2023/03/04 07:21:45;;;;;;;4.97;1.15;;;;;;;4.75;76.64;101245.78;5067243;28;20475;-58
2023/03/04 07:24:11;;;;;;;9.63;1.38;;;;;;;4.77;76.70;101246.56;5067242;28;20032;-58
2023/03/04 07:26:37;;;;;;;5.03;1.00;;;;;;;4.78;76.58;101248.28;5054558;28;20099;-60
2023/03/04 07:29:03;;;;;;;10.07;1.48;;;;;;;4.79;76.09;101250.00;5071251;28;20032;-59
2023/03/04 07:31:31;;;;;;;7.07;1.33;;;;;;;4.82;76.28;101239.50;5058403;28;20035;-56
2023/03/04 07:34:03;;;;;;;7.18;1.48;;;;;;;4.83;76.16;101248.19;5068350;28;20028;-57
2023/03/04 07:36:28;;;;;;;6.68;1.35;;;;;;;4.86;76.25;101254.16;5064778;28;20024;-57
2023/03/04 07:38:55;;;;;;;7.90;1.13;;;;;;;4.90;75.74;101247.13;5057010;28;20054;-55
2023/03/04 07:41:23;;;;;;;13.38;2.60;;;;;;;4.95;75.78;101246.97;5065318;28;20558;-57
2023/03/04 07:43:49;;;;;;;6.00;1.10;;;;;;;5.00;75.85;101256.41;5077340;28;20081;-57
2023/03/04 07:46:15;;;;;;;3.72;1.00;;;;;;;5.05;75.69;101256.31;5067588;28;20032;-53
2023/03/04 07:48:40;;;;;;;4.28;1.45;;;;;;;5.14;75.22;101250.00;5059230;28;20473;-56
2023/03/04 07:51:10;;;;;;;7.53;1.27;;;;;;;5.17;74.89;101245.53;5056977;28;20044;-56
2023/03/04 07:53:37;;;;;;;10.27;1.40;;;;;;;5.18;75.00;101262.91;5060045;28;20405;-60
2023/03/04 07:56:04;;;;;;;6.45;1.48;;;;;;;5.22;74.56;101247.16;5061302;28;20062;-59
2023/03/04 07:58:29;;;;;;;9.45;1.77;;;;;;;5.22;74.16;101242.78;5064106;28;20019;-59
2023/03/04 08:00:55;;;;;;;8.48;0.95;;;;;;;5.24;73.92;101248.84;5063792;28;20442;-59
2023/03/04 08:03:21;;;;;;;4.50;1.05;;;;;;;5.28;73.69;101260.91;5057001;28;20154;-56
2023/03/04 08:05:46;;;;;;;5.85;1.13;;;;;;;5.32;73.16;101261.66;5068962;28;20051;-57
2023/03/04 08:08:12;;;;;;;7.72;1.25;;;;;;;5.33;72.50;101251.19;5053175;28;20159;-58
2023/03/04 08:10:38;;;;;;;7.03;1.88;;;;;;;5.37;72.03;101240.66;5062651;28;20024;-55
2023/03/04 08:13:05;;;;;;;5.35;1.90;;;;;;;5.38;71.97;101243.22;5057210;28;20474;-60
2023/03/04 08:15:32;;;;;;;5.93;1.52;;;;;;;5.41;71.71;101257.94;5049770;28;20130;-58
2023/03/04 08:17:57;;;;;;;9.52;1.25;;;;;;;5.43;71.53;101245.72;5064451;28;20119;-52
2023/03/04 08:20:23;;;;;;;6.63;1.50;;;;;;;5.44;71.31;101248.28;5067588;28;20088;-59
2023/03/04 08:22:48;;;;;;;7.60;1.63;;;;;;;5.50;70.80;101236.78;5066900;28;20042;-57
2023/03/04 08:25:14;;;;;;;10.80;1.92;;;;;;;5.54;70.63;101237.56;5063701;28;20025;-56
2023/03/04 08:27:39;;;;;;;7.82;1.13;;;;;;;5.55;70.32;101227.09;5067450;28;20546;-56
2023/03/04 08:30:05;;;;;;;6.32;1.40;;;;;;;5.57;70.03;101254.00;5062593;28;20032;-56
2023/03/04 08:32:30;;;;;;;10.70;2.03;;;;;;;5.64;69.77;101223.34;5063639;28;20036;-54
2023/03/04 08:34:56;;;;;;;11.88;1.90;;;;;;;5.71;69.46;101224.88;5059690;22;20072;-53
2023/03/04 08:37:22;;;;;;;5.45;1.33;;;;;;;5.73;68.88;101236.13;5035528;28;20091;-58
2023/03/04 08:39:49;;;;;;;12.38;2.05;;;;;;;5.78;69.05;101257.75;5028781;28;22073;-57
2023/03/04 08:42:14;;;;;;;14.32;4.07;;;;;;;5.83;68.29;101235.84;5036616;28;20057;-57
2023/03/04 08:44:40;;;;;;;7.45;1.70;;;;;;;5.83;67.85;101249.78;5029221;28;20155;-54
2023/03/04 08:47:08;;;;;;;10.43;2.58;;;;;;;5.82;67.74;101236.78;5031536;28;20116;-57
2023/03/04 08:49:33;;;;;;;10.45;1.80;;;;;;;5.85;67.64;101226.22;5028049;28;20037;-53
2023/03/04 08:51:59;;;;;;;8.63;2.03;;;;;;;5.91;67.54;101232.09;5027791;28;20094;-54
2023/03/04 08:54:24;;;;;;;14.93;2.08;;;;;;;5.94;67.50;101232.00;5037037;28;20030;-55
2023/03/04 08:56:50;;;;;;;8.07;1.95;;;;;;;5.98;67.01;101232.78;5034047;28;20029;-61
2023/03/04 08:59:15;;;;;;;9.63;2.47;;;;;;;6.02;66.57;101239.66;5031397;28;20036;-57
2023/03/04 09:01:40;;;;;;;11.43;2.45;;;;;;;6.06;66.71;101232.56;5037994;28;20052;-56
2023/03/04 09:04:06;;;;;;;11.27;2.30;;;;;;;6.13;66.46;101241.06;5035951;28;20036;-57
2023/03/04 09:06:31;;;;;;;8.55;2.03;;;;;;;6.11;66.07;101233.28;5037142;28;20057;-59
2023/03/04 09:08:57;;;;;;;19.00;3.08;;;;;;;6.15;66.08;101234.91;5034013;28;20033;-53
2023/03/04 09:11:22;;;;;;;8.73;1.65;;;;;;;6.19;65.96;101240.88;5039330;28;20063;-57
2023/03/04 09:13:50;;;;;;;12.20;3.58;;;;;;;6.24;66.12;101239.84;5038145;28;20033;-55
2023/03/04 09:16:15;;;;;;;19.70;3.17;;;;;;;6.31;66.07;101245.72;5035958;28;20095;-55
2023/03/04 09:18:41;;;;;;;10.15;2.17;;;;;;;6.34;65.60;101234.34;5038235;28;20037;-57
2023/03/04 09:21:07;;;;;;;14.68;2.55;;;;;;;6.35;65.56;101236.88;5042970;28;20086;-54
2023/03/04 09:23:33;;;;;;;14.40;2.50;;;;;;;6.39;65.41;101248.97;5034325;28;20595;-54
2023/03/04 09:25:59;;;;;;;10.48;1.80;;;;;;;6.40;65.41;101240.22;5040874;28;20098;-54
2023/03/04 09:28:25;;;;;;;13.38;3.20;;;;;;;6.42;65.52;101236.69;5043699;28;20033;-55
2023/03/04 09:30:50;;;;;;;9.07;2.50;;;;;;;6.39;65.25;101237.63;5032239;28;20036;-54
2023/03/04 09:33:16;;;;;;;15.20;2.55;;;;;;;6.34;65.50;101273.53;5041924;28;20170;-57
2023/03/04 09:35:42;;;;;;;21.17;2.30;;;;;;;6.33;65.53;101253.53;5031696;28;20491;-56
2023/03/04 09:38:08;;;;;;;12.52;1.52;;;;;;;6.33;64.90;101254.38;5035368;28;20437;-59
2023/03/04 09:40:41;;;;;;;13.05;2.20;;;;;;;6.33;64.24;101272.66;5032756;28;20036;-61
2023/03/04 09:43:17;;;;;;;9.10;1.70;;;;;;;6.34;64.57;101250.84;5037075;28;20032;-55
2023/03/04 09:45:48;;;;;;;10.15;1.98;;;;;;;6.34;64.45;101250.84;5032886;28;21612;-58
2023/03/04 09:48:19;;;;;;;14.15;3.22;;;;;;;6.37;64.58;101249.91;5036173;28;20032;-53
2023/03/04 09:51:09;;;;;;;16.03;3.00;;;;;;;6.45;64.67;101267.94;5038543;28;20072;-54
2023/03/04 09:53:42;;;;;;;15.40;3.85;;;;;;;6.41;64.51;101251.50;5044459;28;20422;-54
2023/03/04 09:56:10;;;;;;;25.10;3.70;;;;;;;6.40;64.44;101249.81;5033197;28;20047;-56
2023/03/04 09:58:50;;;;;;;17.33;3.58;;;;;;;6.32;64.05;101251.81;5044522;28;20021;-54
2023/03/04 10:01:25;;;;;;;6.10;1.77;;;;;;;6.37;64.06;101250.78;5041560;28;20033;-57
2023/03/04 10:03:56;;;;;;;12.70;4.55;;;;;;;6.46;64.03;101251.38;5040021;28;20441;-57
2023/03/04 10:06:22;;;;;;;14.73;3.05;;;;;;;6.47;63.89;101245.22;5042000;28;20024;-54
2023/03/04 10:09:02;;;;;;;16.77;2.90;;;;;;;6.44;63.41;101250.56;5040430;28;20037;-59
2023/03/04 10:11:41;;;;;;;22.08;3.50;;;;;;;6.30;63.45;101258.84;5039732;28;20155;-56
2023/03/04 10:14:32;;;;;;;17.80;2.45;;;;;;;6.30;63.74;101253.63;5040508;28;20040;-56
2023/03/04 10:17:21;;;;;;;13.75;2.17;;;;;;;6.23;63.71;101294.78;5044120;28;20024;-61
2023/03/04 10:19:56;;;;;;;10.77;2.05;;;;;;;6.24;63.75;101288.66;5037815;28;20107;-55
2023/03/04 10:22:51;;;;;;;19.52;2.25;;;;;;;6.23;63.43;101266.03;5036964;28;20112;-58
2023/03/04 10:25:24;;;;;;;8.23;1.88;;;;;;;6.39;63.58;101264.66;5047052;28;20039;-57
2023/03/04 10:27:58;;;;;;;13.18;2.60;;;;;;;6.46;63.55;101280.13;5047175;28;20084;-58
2023/03/04 10:30:33;;;;;;;10.98;1.85;;;;;;;6.42;63.00;101266.31;5049068;28;20032;-56
2023/03/04 10:32:58;;;;;;;9.45;2.60;;;;;;;6.51;63.04;101263.38;5038922;28;20526;-58
2023/03/04 10:35:32;;;;;;;14.15;2.08;;;;;;;6.56;63.28;101263.25;5047891;28;20118;-59
2023/03/04 10:38:02;;;;;;;13.65;2.53;;;;;;;6.52;63.38;101264.25;5041588;28;20029;-58
2023/03/04 10:40:28;;;;;;;10.93;2.10;;;;;;;6.45;62.80;101273.19;5046805;28;20107;-57
2023/03/04 10:42:55;;;;;;;18.10;2.20;;;;;;;6.51;63.01;101273.84;5045477;28;20037;-59
2023/03/04 10:45:23;;;;;;;17.23;2.33;;;;;;;6.58;62.67;101273.66;5042519;28;20121;-57
2023/03/04 10:47:55;;;;;;;15.35;2.83;;;;;;;6.60;62.27;101291.00;5029986;28;20099;-54
2023/03/04 10:50:27;;;;;;;7.55;1.88;;;;;;;6.63;62.42;101274.38;5040680;28;20044;-57
2023/03/04 10:52:54;;;;;;;12.60;2.15;;;;;;;6.74;62.71;101306.25;5046085;28;20044;-56
2023/03/04 10:55:41;;;;;;;25.60;2.80;;;;;;;6.79;62.12;101261.63;5043891;28;20040;-53
2023/03/04 10:58:14;;;;;;;13.43;2.30;;;;;;;6.84;62.30;101275.41;5041940;28;20037;-58
2023/03/04 11:00:40;;;;;;;9.25;2.03;;;;;;;6.84;62.08;101291.09;5033539;28;20033;-56
2023/03/04 11:03:21;;;;;;;14.80;2.15;;;;;;;6.87;61.27;101325.03;5039996;28;20029;-58
2023/03/04 11:05:46;;;;;;;12.30;2.45;;;;;;;6.88;61.53;101292.72;5033751;28;20025;-58
2023/03/04 11:08:22;;;;;;;9.05;1.92;;;;;;;6.86;61.08;101289.31;5036418;28;20045;-58
2023/03/04 11:10:50;;;;;;;12.70;1.48;;;;;;;6.81;61.40;101268.50;5033449;28;20120;-57
2023/03/04 11:13:25;;;;;;;17.42;2.47;;;;;;;6.80;61.34;101273.78;5036015;28;20028;-59
2023/03/04 11:15:57;;;;;;;10.98;2.03;;;;;;;6.82;61.32;101292.91;5040671;28;20162;-58
2023/03/04 11:18:33;;;;;;;15.48;2.33;;;;;;;6.77;61.49;101268.66;5040030;28;20039;-57
2023/03/04 11:20:59;;;;;;;8.35;2.30;;;;;;;6.82;61.62;101278.06;5035611;28;20067;-57
2023/03/04 11:23:38;;;;;;;9.15;2.17;;;;;;;6.84;61.42;101284.09;5037151;28;20032;-56
2023/03/04 11:26:11;;;;;;;10.52;2.70;;;;;;;6.77;61.76;101280.00;5038833;28;20388;-59
2023/03/04 11:28:54;;;;;;;12.52;2.35;;;;;;;6.70;60.90;101276.72;5037279;28;20017;-56